Time;durP1;ratioP1;P1;durP2;ratioP2;P2;SDS_P1;SDS_P2;PMS_P1;PMS_P2;Temp;Humidity;BMP_temperature;BMP_pressure;BME280_temperature;BME280_humidity;BME280_pressure;Samples;Min_cycle;Max_cycle;Signal;HPM_P1;HPM_P2
2021/07/13 00:02:36;;;;;;;20.95;6.12;;;;;;;18.64;100.00;99965.44;1735078;82;21366;-79
2021/07/13 00:05:43;;;;;;;8.38;5.83;;;;;;;18.62;100.00;99957.89;1743913;82;21800;-79
2021/07/13 00:08:53;;;;;;;10.32;7.20;;;;;;;18.64;100.00;99961.83;1715029;83;21196;-79
2021/07/13 00:11:59;;;;;;;20.80;7.30;;;;;;;18.66;100.00;99970.73;1736194;82;21678;-79
2021/07/13 00:15:05;;;;;;;10.05;6.33;;;;;;;18.67;100.00;99973.80;1736186;82;21136;-79
2021/07/13 00:18:11;;;;;;;10.25;6.95;;;;;;;18.67;99.90;99970.19;1743890;81;21835;-79
2021/07/13 00:21:17;;;;;;;14.00;6.08;;;;;;;18.65;99.89;99974.05;1714103;83;21301;-79
2021/07/13 00:24:22;;;;;;;12.03;6.95;;;;;;;18.64;99.60;99965.44;1712626;83;21308;-79
2021/07/13 00:27:28;;;;;;;8.63;6.20;;;;;;;18.62;99.54;99962.59;1733937;82;21862;-79
2021/07/13 00:30:34;;;;;;;11.20;6.67;;;;;;;18.62;99.60;99957.89;1745330;82;21195;-79
2021/07/13 00:33:40;;;;;;;14.38;6.25;;;;;;;18.59;99.40;99962.55;1735074;82;21884;-79
2021/07/13 00:36:45;;;;;;;13.25;7.10;;;;;;;18.57;99.41;99958.30;1745413;82;21305;-80
2021/07/13 00:39:52;;;;;;;11.03;6.65;;;;;;;18.56;99.54;99963.55;1713375;83;21844;-79
2021/07/13 00:43:00;;;;;;;13.35;6.03;;;;;;;18.58;99.48;99959.47;1714092;83;21836;-79
2021/07/13 00:46:06;;;;;;;15.15;6.30;;;;;;;18.55;99.44;99961.33;1714762;83;21317;-79
2021/07/13 00:49:13;;;;;;;13.45;6.70;;;;;;;18.51;99.56;99962.87;1714763;83;21329;-79
2021/07/13 00:52:19;;;;;;;16.32;7.10;;;;;;;18.50;99.82;99963.13;1712636;83;21222;-79
2021/07/13 00:55:23;;;;;;;17.60;6.53;;;;;;;18.48;100.00;99957.80;1713238;83;21274;-79
2021/07/13 00:58:29;;;;;;;9.80;6.65;;;;;;;18.47;100.00;99954.73;1703289;84;21257;-80
2021/07/13 01:01:35;;;;;;;16.55;6.08;;;;;;;18.45;100.00;99958.30;1703181;84;21352;-79
2021/07/13 01:04:42;;;;;;;10.78;6.33;;;;;;;18.45;100.00;99956.91;1703086;84;21902;-79
2021/07/13 01:08:15;;;;;;;13.78;6.78;;;;;;;18.40;100.00;99960.92;1733861;82;21318;-79
2021/07/13 01:11:36;;;;;;;18.70;7.30;;;;;;;18.38;100.00;99953.38;1734366;82;21383;-80
2021/07/13 01:15:01;;;;;;;13.35;6.80;;;;;;;18.37;100.00;99950.31;1735028;82;21833;-79
2021/07/13 01:18:10;;;;;;;17.67;6.70;;;;;;;18.37;100.00;99946.16;1735866;82;21198;-79
2021/07/13 01:21:38;;;;;;;14.45;6.50;;;;;;;18.38;100.00;99943.69;1736533;82;21268;-79
2021/07/13 01:25:17;;;;;;;11.97;5.83;;;;;;;18.42;100.00;99946.84;1734502;82;21249;-79
2021/07/13 01:28:25;;;;;;;13.83;6.05;;;;;;;18.42;100.00;99940.75;1735940;82;21332;-80
2021/07/13 01:31:30;;;;;;;11.93;6.20;;;;;;;18.42;100.00;99938.53;1735340;82;21317;-79
2021/07/13 01:34:40;;;;;;;11.08;5.92;;;;;;;18.44;100.00;99938.58;1735231;82;21331;-79
2021/07/13 01:37:45;;;;;;;11.55;6.47;;;;;;;18.45;100.00;99940.30;1734087;82;21322;-79
2021/07/13 01:40:53;;;;;;;10.20;5.75;;;;;;;18.49;100.00;99944.80;1735305;82;21340;-79
2021/07/13 01:43:58;;;;;;;15.08;6.25;;;;;;;18.51;100.00;99942.10;1736417;82;21333;-79
2021/07/13 01:47:04;;;;;;;9.48;6.22;;;;;;;18.54;100.00;99947.72;1735688;82;21201;-80
2021/07/13 01:50:17;;;;;;;7.67;5.25;;;;;;;18.54;100.00;99947.18;1733843;82;21728;-79
2021/07/13 01:53:22;;;;;;;11.65;6.90;;;;;;;18.58;100.00;99955.32;1735428;82;21721;-79
2021/07/13 01:56:27;;;;;;;11.00;5.45;;;;;;;18.62;100.00;99966.75;1734179;82;21403;-79
2021/07/13 01:59:33;;;;;;;10.53;5.90;;;;;;;18.69;100.00;99969.46;1745320;82;21174;-80
2021/07/13 02:02:38;;;;;;;16.35;6.50;;;;;;;18.71;100.00;99969.51;1745293;82;21516;-80
2021/07/13 02:05:44;;;;;;;13.68;6.67;;;;;;;18.74;100.00;99974.59;1744894;82;21345;-79
2021/07/13 02:08:51;;;;;;;9.75;7.35;;;;;;;18.80;100.00;99974.17;1743978;82;21202;-79
2021/07/13 02:11:56;;;;;;;10.35;6.95;;;;;;;18.85;100.00;99982.06;1744762;82;21344;-79
2021/07/13 02:15:02;;;;;;;9.15;5.85;;;;;;;18.94;100.00;99985.33;1744121;82;21190;-79
2021/07/13 02:18:09;;;;;;;12.15;7.08;;;;;;;19.00;100.00;99982.14;1744045;82;21856;-79
2021/07/13 02:21:15;;;;;;;14.87;7.40;;;;;;;19.08;100.00;99984.02;1745494;82;21186;-79
2021/07/13 02:24:21;;;;;;;8.48;6.80;;;;;;;19.23;100.00;99982.70;1743976;82;21242;-79
2021/07/13 02:27:30;;;;;;;10.10;6.22;;;;;;;19.39;100.00;99989.77;1744732;82;21336;-80
2021/07/13 02:30:36;;;;;;;19.15;8.78;;;;;;;19.52;100.00;99988.64;1745535;82;21360;-80
2021/07/13 02:33:55;;;;;;;14.03;7.20;;;;;;;19.66;100.00;99985.94;1745783;82;21206;-79
2021/07/13 02:37:01;;;;;;;11.85;7.00;;;;;;;19.90;100.00;99988.67;1744479;82;21204;-79
2021/07/13 02:40:07;;;;;;;8.35;6.90;;;;;;;20.15;99.15;99985.05;1744431;82;21222;-80
2021/07/13 02:43:11;;;;;;;11.03;7.08;;;;;;;20.39;97.58;99982.17;1744350;82;22766;-80
2021/07/13 02:46:17;;;;;;;17.20;6.67;;;;;;;20.62;96.04;99983.47;1744951;82;21274;-79
2021/07/13 02:49:31;;;;;;;7.83;6.25;;;;;;;20.85;93.50;99983.05;1745433;82;21297;-80
2021/07/13 02:52:38;;;;;;;13.60;6.62;;;;;;;21.04;91.96;99982.25;1744024;82;21194;-79
2021/07/13 02:55:44;;;;;;;12.78;6.75;;;;;;;21.25;90.79;99975.89;1745349;82;21397;-80
2021/07/13 02:58:50;;;;;;;8.58;6.17;;;;;;;21.51;88.66;99978.55;1740885;80;21359;-79
2021/07/13 03:01:55;;;;;;;10.55;5.70;;;;;;;21.67;86.64;99983.22;1736043;82;21308;-80
2021/07/13 03:05:01;;;;;;;12.45;6.33;;;;;;;21.81;86.25;99984.24;1735930;82;21352;-80
2021/07/13 03:08:08;;;;;;;16.02;7.50;;;;;;;22.02;85.12;99982.03;1736011;82;21347;-80
2021/07/13 03:11:14;;;;;;;16.05;6.83;;;;;;;22.22;83.77;99978.67;1735827;82;21319;-80
2021/07/13 03:14:23;;;;;;;14.07;6.35;;;;;;;22.40;83.12;99981.66;1734685;82;21308;-80
2021/07/13 03:17:29;;;;;;;11.85;6.37;;;;;;;22.60;81.99;99982.42;1734819;82;21308;-80
2021/07/13 03:20:34;;;;;;;12.05;7.47;;;;;;;22.70;80.67;99980.56;1734524;82;21325;-80
2021/07/13 03:23:45;;;;;;;12.07;7.60;;;;;;;22.80;80.70;99971.45;1734506;82;21902;-80
2021/07/13 03:26:52;;;;;;;12.60;7.70;;;;;;;22.95;80.33;99972.16;1735678;82;21832;-80
2021/07/13 03:29:58;;;;;;;11.25;7.72;;;;;;;23.03;78.51;99982.00;1743315;82;21348;-80
2021/07/13 03:33:04;;;;;;;17.37;7.12;;;;;;;23.09;78.62;99975.34;1734519;81;21253;-80
2021/07/13 03:36:09;;;;;;;9.85;6.85;;;;;;;23.31;78.03;99976.08;1735885;82;21317;-79
2021/07/13 03:39:15;;;;;;;14.25;7.50;;;;;;;23.45;77.30;99973.66;1735415;82;21339;-80
2021/07/13 03:42:21;;;;;;;11.08;7.65;;;;;;;23.60;76.79;99963.97;1736960;82;21328;-80
2021/07/13 03:45:29;;;;;;;16.30;8.08;;;;;;;23.71;75.58;99968.55;1736192;82;21899;-79
2021/07/13 03:48:35;;;;;;;12.15;7.62;;;;;;;23.80;75.51;99970.80;1734472;81;21292;-80
2021/07/13 03:51:54;;;;;;;13.93;8.38;;;;;;;23.90;75.50;99959.15;1735882;82;21364;-79
2021/07/13 03:54:59;;;;;;;13.05;7.70;;;;;;;24.04;75.48;99967.00;1735412;82;21201;-79
2021/07/13 03:58:05;;;;;;;18.50;8.15;;;;;;;24.18;75.09;99964.84;1734715;82;21344;-79
2021/07/13 04:01:11;;;;;;;14.25;8.25;;;;;;;24.30;74.51;99959.55;1735322;81;21326;-79
2021/07/13 04:04:16;;;;;;;13.28;8.68;;;;;;;24.23;74.20;99966.25;1735911;82;21193;-79
2021/07/13 04:07:23;;;;;;;11.30;7.87;;;;;;;24.25;74.29;99964.57;1734465;81;21264;-79
2021/07/13 04:10:29;;;;;;;12.53;8.30;;;;;;;24.32;74.37;99965.13;1735881;82;21352;-80
2021/07/13 04:13:34;;;;;;;17.23;9.13;;;;;;;24.41;74.03;99964.91;1735530;82;21863;-80
2021/07/13 04:16:40;;;;;;;15.78;9.43;;;;;;;24.49;74.09;99964.94;1735929;82;21308;-80
2021/07/13 04:19:46;;;;;;;12.95;9.13;;;;;;;24.54;74.02;99961.31;1743482;81;21308;-80
2021/07/13 04:22:52;;;;;;;10.85;8.58;;;;;;;24.58;73.13;99959.08;1734535;81;21201;-80
2021/07/13 04:25:58;;;;;;;10.43;8.28;;;;;;;24.57;73.05;99960.20;1734542;82;21336;-80
2021/07/13 04:29:04;;;;;;;13.08;9.43;;;;;;;24.59;72.31;99955.72;1734364;82;21222;-80
2021/07/13 04:32:12;;;;;;;13.60;9.18;;;;;;;24.48;72.75;99961.30;1735931;82;21871;-80
2021/07/13 04:35:17;;;;;;;13.25;8.78;;;;;;;24.48;72.51;99964.66;1735888;82;21842;-80
2021/07/13 04:38:23;;;;;;;18.20;9.70;;;;;;;24.49;73.28;99962.14;1736916;82;21277;-81
2021/07/13 04:41:30;;;;;;;11.73;9.33;;;;;;;24.53;73.48;99962.44;1736162;82;21320;-81
2021/07/13 04:44:36;;;;;;;19.15;10.13;;;;;;;24.61;72.27;99968.89;1735261;82;21855;-81
2021/07/13 04:47:40;;;;;;;10.72;8.98;;;;;;;24.68;72.22;99967.48;1734454;82;21776;-81
2021/07/13 04:50:46;;;;;;;17.10;9.05;;;;;;;24.68;71.90;99967.48;1734456;82;21253;-80
2021/07/13 04:53:53;;;;;;;15.98;10.25;;;;;;;24.76;72.45;99975.05;1735834;82;21839;-80
2021/07/13 04:56:59;;;;;;;19.82;8.98;;;;;;;24.88;71.72;99978.40;1735904;82;21844;-78
2021/07/13 05:00:04;;;;;;;21.82;9.53;;;;;;;24.94;71.36;99975.91;1735016;82;21991;-80
2021/07/13 05:03:11;;;;;;;17.62;8.45;;;;;;;24.94;71.99;99975.34;1733898;82;21241;-80
2021/07/13 05:06:17;;;;;;;15.78;9.38;;;;;;;25.05;71.71;99979.53;1735760;82;21320;-80
2021/07/13 05:09:24;;;;;;;13.93;7.97;;;;;;;25.14;70.22;99987.69;1734222;81;21308;-80
2021/07/13 05:12:30;;;;;;;17.57;8.40;;;;;;;25.28;70.59;99991.59;1733706;82;21391;-80
2021/07/13 05:15:35;;;;;;;15.32;9.20;;;;;;;25.44;70.25;99992.40;1734294;81;21276;-81
2021/07/13 05:18:41;;;;;;;19.42;8.23;;;;;;;25.52;69.99;99997.44;1709859;81;21324;-80
2021/07/13 05:21:55;;;;;;;17.65;9.43;;;;;;;25.55;68.11;100005.28;1711915;81;21306;-80
2021/07/13 05:24:55;;;;;;;16.32;9.38;;;;;;;25.51;68.95;100012.56;1720996;82;21311;-80
2021/07/13 05:28:01;;;;;;;16.45;8.50;;;;;;;25.61;68.76;100012.54;1743696;81;21189;-81
2021/07/13 05:31:07;;;;;;;19.95;8.03;;;;;;;25.74;68.13;100013.36;1746768;81;21495;-80
2021/07/13 05:34:13;;;;;;;13.43;8.25;;;;;;;25.85;65.87;100014.75;1744221;81;21310;-81
2021/07/13 05:37:20;;;;;;;12.45;8.15;;;;;;;25.93;65.90;100010.81;1738983;81;21172;-81
2021/07/13 05:40:26;;;;;;;12.47;9.33;;;;;;;26.03;67.17;100018.34;1745741;81;21366;-81
2021/07/13 05:43:31;;;;;;;17.17;8.20;;;;;;;26.18;66.59;100017.44;1741069;82;21160;-81
2021/07/13 05:46:37;;;;;;;15.05;8.15;;;;;;;26.28;66.60;100027.20;1727794;82;21202;-80
2021/07/13 05:49:43;;;;;;;10.45;7.67;;;;;;;26.34;64.98;100038.66;1720259;83;21351;-81
2021/07/13 05:52:52;;;;;;;14.73;8.78;;;;;;;26.38;65.10;100036.96;1731428;82;21349;-81
2021/07/13 05:55:58;;;;;;;13.95;8.13;;;;;;;26.43;65.49;100044.54;1723398;83;21313;-80
2021/07/13 05:59:04;;;;;;;14.20;7.53;;;;;;;26.48;65.83;100036.94;1723030;83;21330;-80
2021/07/13 06:02:10;;;;;;;9.23;6.47;;;;;;;26.61;62.97;100041.09;1721451;81;21380;-81
2021/07/13 06:05:16;;;;;;;14.63;6.67;;;;;;;26.74;62.91;100039.05;1734638;82;22475;-81
2021/07/13 06:08:22;;;;;;;11.30;6.80;;;;;;;26.88;60.78;100039.81;1740279;82;21342;-81
2021/07/13 06:11:27;;;;;;;13.60;6.50;;;;;;;27.00;60.07;100043.07;1745131;82;21303;-80
2021/07/13 06:14:36;;;;;;;13.95;7.45;;;;;;;27.15;58.72;100042.17;1739565;82;21260;-81
2021/07/13 06:17:41;;;;;;;11.20;7.12;;;;;;;27.25;59.65;100038.72;1745033;82;22145;-81
2021/07/13 06:20:47;;;;;;;14.70;7.08;;;;;;;27.40;59.63;100034.93;1745803;82;21684;-81
2021/07/13 06:23:52;;;;;;;13.10;7.42;;;;;;;27.57;60.63;100030.83;1740138;82;21275;-81
2021/07/13 06:26:58;;;;;;;11.28;5.65;;;;;;;27.72;58.30;100033.55;1739258;82;21346;-80
2021/07/13 06:30:04;;;;;;;12.55;6.35;;;;;;;27.72;57.63;100032.97;1744095;80;21795;-80
2021/07/13 06:33:09;;;;;;;11.65;5.62;;;;;;;27.75;57.24;100042.19;1776696;80;21359;-81
2021/07/13 06:36:15;;;;;;;11.18;5.95;;;;;;;27.82;54.68;100048.88;1744051;82;21298;-80
2021/07/13 06:39:21;;;;;;;13.90;5.58;;;;;;;27.85;54.12;100041.24;1754240;81;21891;-81
2021/07/13 06:42:27;;;;;;;7.15;5.12;;;;;;;28.00;55.31;100048.70;1733893;82;21389;-80
2021/07/13 06:45:32;;;;;;;9.13;5.47;;;;;;;28.02;52.96;100045.84;1704949;83;21618;-80
2021/07/13 06:48:39;;;;;;;9.78;6.28;;;;;;;28.06;52.63;100039.63;1715655;81;21282;-80
2021/07/13 06:51:45;;;;;;;12.25;5.47;;;;;;;28.21;55.59;100039.44;1702788;84;21940;-81
2021/07/13 06:54:52;;;;;;;14.85;5.60;;;;;;;28.36;55.29;100038.44;1741623;82;21796;-81
2021/07/13 06:57:56;;;;;;;9.70;4.90;;;;;;;28.44;54.80;100040.02;1727453;82;21263;-79
2021/07/13 07:01:03;;;;;;;13.18;4.80;;;;;;;28.43;52.06;100045.38;1734511;82;21785;-82
2021/07/13 07:04:11;;;;;;;7.72;5.40;;;;;;;28.43;51.45;100043.14;1729257;82;21833;-80
2021/07/13 07:07:18;;;;;;;9.15;4.40;;;;;;;28.76;53.58;100038.45;1699932;84;21214;-81
2021/07/13 07:10:26;;;;;;;13.03;5.12;;;;;;;28.76;53.58;100038.45;1728096;83;21156;-79
2021/07/13 07:13:31;;;;;;;20.62;5.03;;;;;;;28.94;53.41;100041.02;1739258;82;21270;-79
2021/07/13 07:16:36;;;;;;;6.90;4.47;;;;;;;29.01;52.45;100052.73;1724698;83;21364;-79
2021/07/13 07:19:43;;;;;;;10.60;5.08;;;;;;;28.97;52.85;100050.27;1751931;82;21862;-80
2021/07/13 07:22:49;;;;;;;10.70;4.70;;;;;;;28.89;52.71;100058.81;1712312;83;21781;-80
2021/07/13 07:25:55;;;;;;;8.98;4.35;;;;;;;28.80;53.27;100055.58;1721749;83;21177;-80
2021/07/13 07:29:02;;;;;;;10.82;4.92;;;;;;;28.81;52.69;100057.25;1722641;83;21684;-80
2021/07/13 07:32:09;;;;;;;7.35;5.22;;;;;;;28.95;52.43;100058.19;1722776;83;21302;-79
2021/07/13 07:35:16;;;;;;;7.80;5.62;;;;;;;29.08;54.73;100054.61;1723492;83;21768;-79
2021/07/13 07:38:21;;;;;;;5.72;3.98;;;;;;;29.33;54.12;100057.58;1722564;83;21796;-80
2021/07/13 07:44:32;;;;;;;8.45;4.15;;;;;;;29.53;47.76;100050.75;1892872;75;28015;-82
2021/07/13 07:47:37;;;;;;;6.17;4.17;;;;;;;29.49;49.38;100060.38;1859530;76;21279;-83
2021/07/13 07:50:45;;;;;;;15.80;4.17;;;;;;;29.42;48.59;100064.77;1854028;77;21153;-82
2021/07/13 07:53:54;;;;;;;14.68;4.60;;;;;;;29.46;48.59;100058.78;1867225;76;21213;-81
2021/07/13 07:57:00;;;;;;;11.57;4.50;;;;;;;29.40;47.71;100059.41;1872722;75;21242;-81
2021/07/13 08:00:11;;;;;;;9.93;4.20;;;;;;;29.45;49.31;100055.67;1887707;76;21291;-82
2021/07/13 08:03:16;;;;;;;10.03;4.25;;;;;;;29.54;49.91;100058.05;1907197;75;21157;-82
2021/07/13 08:06:20;;;;;;;8.78;4.08;;;;;;;29.77;48.92;100064.14;1835885;77;21720;-82
2021/07/13 08:09:26;;;;;;;8.60;3.87;;;;;;;29.94;46.64;100062.73;1904146;74;21254;-80
2021/07/13 08:12:33;;;;;;;9.10;4.60;;;;;;;29.97;46.11;100057.85;1885776;76;21691;-80
2021/07/13 08:15:39;;;;;;;11.53;4.37;;;;;;;30.05;47.48;100063.61;1888488;76;21247;-81
2021/07/13 08:18:45;;;;;;;6.03;3.92;;;;;;;30.12;46.60;100067.45;1888639;76;21231;-81
2021/07/13 08:21:52;;;;;;;9.28;4.55;;;;;;;30.20;46.06;100069.55;1862111;77;21486;-81
2021/07/13 08:24:59;;;;;;;8.45;4.83;;;;;;;30.33;46.68;100066.48;1869837;75;21827;-81
2021/07/13 08:28:04;;;;;;;11.93;4.60;;;;;;;30.45;45.89;100063.97;1869727;75;21199;-81
2021/07/13 08:31:09;;;;;;;13.50;4.67;;;;;;;30.52;45.97;100055.91;1885037;76;21266;-81
2021/07/13 08:34:15;;;;;;;7.92;4.55;;;;;;;30.60;46.72;100059.98;1889437;74;21834;-81
2021/07/13 08:37:21;;;;;;;6.42;4.78;;;;;;;30.80;45.98;100058.13;1885732;76;21277;-81
2021/07/13 08:40:27;;;;;;;22.52;5.35;;;;;;;31.07;45.31;100050.74;1855080;77;21326;-81
2021/07/13 08:43:34;;;;;;;18.92;5.65;;;;;;;31.37;44.13;100053.98;1840431;78;22415;-81
2021/07/13 08:46:40;;;;;;;10.05;5.55;;;;;;;31.62;42.43;100061.83;1827293;78;21286;-81
2021/07/13 08:49:46;;;;;;;10.93;5.90;;;;;;;31.84;40.99;100062.97;1853784;77;21364;-81
2021/07/13 08:52:52;;;;;;;12.18;4.80;;;;;;;31.97;40.96;100070.53;1854704;77;21187;-81
2021/07/13 08:55:58;;;;;;;10.20;5.25;;;;;;;31.97;40.61;100067.12;1850376;77;21151;-80
2021/07/13 08:59:04;;;;;;;9.30;5.80;;;;;;;31.96;40.41;100067.45;1854060;77;21267;-81
2021/07/13 09:02:10;;;;;;;9.60;5.17;;;;;;;32.04;40.28;100061.84;1852046;77;21259;-81
2021/07/13 09:05:18;;;;;;;9.93;5.50;;;;;;;32.17;40.87;100062.88;1852825;77;21222;-81
2021/07/13 09:08:38;;;;;;;11.33;5.42;;;;;;;32.15;42.00;100061.55;1816937;77;21152;-80
2021/07/13 09:11:44;;;;;;;10.80;4.80;;;;;;;32.15;43.89;100060.97;1860237;76;21275;-81
2021/07/13 09:15:13;;;;;;;9.93;5.80;;;;;;;32.11;41.43;100065.60;1866912;76;21148;-82
2021/07/13 09:18:18;;;;;;;6.62;3.75;;;;;;;31.90;38.77;100063.08;1826925;77;21573;-80
2021/07/13 09:21:34;;;;;;;6.72;3.00;;;;;;;31.66;39.96;100060.00;1825922;77;21418;-80
2021/07/13 09:24:40;;;;;;;5.42;2.90;;;;;;;31.60;39.12;100065.54;1862966;75;21262;-80
2021/07/13 09:27:46;;;;;;;6.67;2.65;;;;;;;31.56;39.32;100059.69;1872596;76;21140;-80
2021/07/13 09:30:59;;;;;;;6.72;2.80;;;;;;;31.57;39.21;100066.17;1819271;77;21619;-80
2021/07/13 09:34:05;;;;;;;12.47;3.17;;;;;;;31.56;43.24;100068.17;1869650;76;21925;-82
2021/07/13 09:37:10;;;;;;;10.40;2.50;;;;;;;31.57;42.59;100067.59;1828677;77;21281;-80
2021/07/13 09:40:20;;;;;;;5.83;3.12;;;;;;;31.63;39.92;100069.14;1821965;76;21846;-82
2021/07/13 09:43:28;;;;;;;7.17;2.60;;;;;;;31.68;38.91;100069.01;1861101;76;21925;-81
2021/07/13 09:46:45;;;;;;;3.40;2.42;;;;;;;31.70;38.31;100070.92;1834151;77;21653;-82
2021/07/13 09:49:48;;;;;;;7.22;3.10;;;;;;;31.64;38.52;100072.22;1832284;77;21164;-81
2021/07/13 09:53:06;;;;;;;8.10;2.60;;;;;;;31.55;37.17;100071.33;1822753;78;21260;-82
2021/07/13 09:56:12;;;;;;;4.90;2.02;;;;;;;31.59;37.47;100066.70;1832555;76;21552;-81
2021/07/13 09:59:18;;;;;;;9.80;2.20;;;;;;;31.75;39.12;100071.36;1831023;76;21751;-81
2021/07/13 10:02:27;;;;;;;9.68;1.77;;;;;;;31.84;35.41;100069.45;1830261;76;21189;-81
2021/07/13 10:05:29;;;;;;;4.75;1.52;;;;;;;31.89;35.15;100069.89;1833649;76;21754;-81
2021/07/13 10:08:35;;;;;;;6.95;2.00;;;;;;;31.89;36.74;100069.89;1821375;76;21220;-82
2021/07/13 10:11:41;;;;;;;7.72;2.40;;;;;;;31.89;36.57;100067.90;1870184;76;21145;-81
2021/07/13 10:14:50;;;;;;;4.78;2.12;;;;;;;31.82;35.08;100067.55;1878172;75;21145;-81
2021/07/13 10:17:47;;;;;;;6.15;2.05;;;;;;;31.73;36.84;100075.94;1881670;75;21121;-80
2021/07/13 10:20:53;;;;;;;13.85;2.50;;;;;;;31.61;36.14;100064.37;1832072;76;21171;-81
2021/07/13 10:24:00;;;;;;;14.60;2.20;;;;;;;31.56;36.38;100074.41;1828345;76;21223;-82
2021/07/13 10:27:06;;;;;;;4.05;2.02;;;;;;;31.54;35.74;100068.25;1846000;76;21267;-81
2021/07/13 10:30:07;;;;;;;4.75;2.52;;;;;;;31.59;36.92;100072.94;1847351;75;21149;-81
2021/07/13 10:33:36;;;;;;;5.58;2.42;;;;;;;31.65;39.41;100073.05;1838296;75;21804;-82
2021/07/13 10:36:43;;;;;;;5.45;2.33;;;;;;;31.66;37.72;100069.89;1833803;75;21816;-81
2021/07/13 10:39:55;;;;;;;8.90;2.22;;;;;;;31.72;35.91;100060.72;1841092;77;21298;-81
2021/07/13 10:43:03;;;;;;;4.85;2.00;;;;;;;31.89;36.42;100064.23;1846594;77;21231;-81
2021/07/13 10:46:18;;;;;;;6.37;1.98;;;;;;;31.99;36.89;100059.71;1842477;75;21605;-81
2021/07/13 10:49:27;;;;;;;6.67;2.30;;;;;;;31.93;36.79;100068.09;1867203;76;21672;-82
2021/07/13 10:52:59;;;;;;;3.10;1.87;;;;;;;31.73;38.46;100058.14;1862482;76;21219;-82
2021/07/13 10:56:15;;;;;;;5.17;1.67;;;;;;;31.63;37.22;100059.83;1846045;76;21222;-82
2021/07/13 10:59:28;;;;;;;12.73;2.20;;;;;;;31.61;36.09;100053.06;1862337;76;21283;-82
2021/07/13 11:02:36;;;;;;;8.65;2.05;;;;;;;31.60;38.87;100050.58;1873449;76;21254;-82
2021/07/13 11:05:50;;;;;;;7.00;2.67;;;;;;;31.61;38.31;100052.23;1827294;77;21763;-81
2021/07/13 11:09:00;;;;;;;4.40;1.75;;;;;;;31.55;40.65;100051.55;1861762;76;21314;-81
2021/07/13 11:12:15;;;;;;;4.00;2.10;;;;;;;31.40;37.15;100048.53;1860378;77;21280;-82
2021/07/13 11:15:20;;;;;;;2.20;1.62;;;;;;;31.34;37.21;100050.41;1857371;76;22247;-82
2021/07/13 11:18:38;;;;;;;5.83;1.80;;;;;;;31.28;35.32;100046.86;1863405;76;21184;-82
2021/07/13 11:21:44;;;;;;;6.08;1.60;;;;;;;31.16;33.69;100044.59;1857500;76;21203;-82
2021/07/13 11:24:49;;;;;;;8.73;2.10;;;;;;;31.11;34.26;100055.19;1877074;75;21553;-83
2021/07/13 11:27:55;;;;;;;4.03;1.80;;;;;;;31.08;35.16;100045.34;1853026;76;21250;-81
2021/07/13 11:31:01;;;;;;;8.55;2.00;;;;;;;31.07;34.92;100045.09;1853590;76;21241;-81
2021/07/13 11:34:12;;;;;;;6.92;1.87;;;;;;;31.13;33.19;100045.22;1860140;76;21826;-81
2021/07/13 11:37:19;;;;;;;8.45;2.05;;;;;;;31.18;33.17;100044.26;1848697;77;21629;-81
2021/07/13 11:40:26;;;;;;;3.17;1.90;;;;;;;31.22;34.08;100040.47;1859071;76;21537;-82
2021/07/13 11:43:34;;;;;;;2.92;1.90;;;;;;;31.25;33.81;100040.42;1864551;76;21771;-81
2021/07/13 11:46:48;;;;;;;9.85;2.50;;;;;;;31.22;33.26;100041.88;1868046;76;21161;-82
2021/07/13 11:49:55;;;;;;;3.37;1.98;;;;;;;31.26;34.59;100040.67;1842840;77;21133;-82
2021/07/13 11:53:00;;;;;;;5.87;2.05;;;;;;;31.29;34.70;100037.25;1853697;77;21237;-82
2021/07/13 11:56:07;;;;;;;5.78;1.98;;;;;;;31.37;34.42;100035.62;1855434;77;21111;-82
2021/07/13 11:59:12;;;;;;;7.03;2.25;;;;;;;31.41;35.92;100038.06;1846001;77;21307;-81
2021/07/13 12:02:18;;;;;;;5.15;2.30;;;;;;;31.43;36.40;100039.42;1829011;76;21256;-81
2021/07/13 12:05:29;;;;;;;3.72;2.00;;;;;;;31.43;34.85;100039.98;1832364;78;21331;-81
2021/07/13 12:08:37;;;;;;;7.70;2.30;;;;;;;31.45;35.38;100047.57;1826823;78;21252;-81
2021/07/13 12:11:52;;;;;;;3.30;2.02;;;;;;;31.43;36.19;100039.42;1845183;76;21184;-82
2021/07/13 12:15:01;;;;;;;5.90;1.92;;;;;;;31.40;37.28;100042.05;1863723;76;21244;-81
2021/07/13 12:18:06;;;;;;;7.00;1.80;;;;;;;31.36;37.31;100036.20;1865543;76;21155;-81
2021/07/13 12:21:05;;;;;;;8.70;2.30;;;;;;;31.39;36.48;100038.98;1861509;76;21145;-81
2021/07/13 12:24:01;;;;;;;4.58;2.00;;;;;;;31.40;38.27;100034.98;1839478;76;21702;-81
2021/07/13 12:27:06;;;;;;;7.08;2.33;;;;;;;31.44;39.52;100031.20;1850973;76;21620;-81
2021/07/13 12:30:17;;;;;;;3.00;1.98;;;;;;;31.50;40.01;100031.31;1860028;76;21136;-81
2021/07/13 12:33:23;;;;;;;4.92;2.45;;;;;;;31.50;39.13;100031.31;1884187;76;21258;-81
2021/07/13 12:36:36;;;;;;;7.33;2.20;;;;;;;31.41;36.82;100017.70;1806387;76;21684;-81
2021/07/13 12:39:43;;;;;;;4.37;1.95;;;;;;;31.39;37.73;100022.02;1876405;76;21302;-81
2021/07/13 12:42:52;;;;;;;8.35;2.80;;;;;;;31.37;36.79;100026.56;1878723;76;21271;-82
2021/07/13 12:45:57;;;;;;;17.17;2.80;;;;;;;31.35;38.67;100018.17;1847714;77;21141;-83
2021/07/13 12:49:03;;;;;;;4.83;2.25;;;;;;;31.30;38.11;100018.55;1840142;78;21302;-81
2021/07/13 12:52:18;;;;;;;3.25;2.27;;;;;;;31.26;38.88;100013.84;1841742;76;21481;-81
2021/07/13 12:55:52;;;;;;;2.75;1.90;;;;;;;31.24;39.48;100011.89;1848966;76;21271;-80
2021/07/13 12:58:56;;;;;;;5.05;2.27;;;;;;;31.23;39.37;100008.23;1857716;77;21157;-82
2021/07/13 13:02:02;;;;;;;4.92;2.00;;;;;;;31.25;38.12;100007.35;1862301;76;21160;-81
2021/07/13 13:05:07;;;;;;;7.65;2.60;;;;;;;31.22;38.23;100005.16;1882853;76;21795;-80
2021/07/13 13:08:27;;;;;;;5.00;2.00;;;;;;;31.17;38.09;100005.30;1855098;76;21308;-81
2021/07/13 13:11:39;;;;;;;7.90;2.12;;;;;;;31.15;38.17;99999.14;1875443;76;21297;-81
2021/07/13 13:14:45;;;;;;;5.67;2.27;;;;;;;31.11;38.67;99991.05;1875928;75;22067;-81
2021/07/13 13:17:51;;;;;;;5.90;2.10;;;;;;;31.07;37.04;99985.78;1874882;76;21291;-81
2021/07/13 13:20:58;;;;;;;4.35;2.22;;;;;;;31.05;37.22;99988.08;1875147;76;21208;-81
2021/07/13 13:24:09;;;;;;;10.75;2.37;;;;;;;31.04;38.76;99984.42;1873995;76;21274;-81
2021/07/13 13:27:16;;;;;;;5.83;2.00;;;;;;;31.02;39.87;99995.80;1875418;76;21180;-81
2021/07/13 13:30:23;;;;;;;7.00;2.25;;;;;;;31.02;40.04;99989.57;1875473;76;21316;-80
2021/07/13 13:33:28;;;;;;;8.03;2.65;;;;;;;31.03;40.61;99985.58;1876990;76;21177;-80
2021/07/13 13:36:40;;;;;;;7.20;2.40;;;;;;;31.01;38.28;99985.08;1875190;76;21310;-81
2021/07/13 13:39:41;;;;;;;7.58;2.27;;;;;;;30.94;38.88;99983.84;1875087;76;21781;-80
2021/07/13 13:42:47;;;;;;;6.85;2.35;;;;;;;30.91;37.17;99981.66;1875731;76;21648;-81
2021/07/13 13:45:52;;;;;;;9.93;2.02;;;;;;;30.86;39.01;99974.72;1875493;76;21165;-80
2021/07/13 13:48:57;;;;;;;5.87;2.27;;;;;;;30.74;38.02;99977.55;1874328;76;21307;-81
2021/07/13 13:52:03;;;;;;;6.10;2.10;;;;;;;30.68;37.64;99975.14;1851523;76;21173;-80
2021/07/13 13:55:08;;;;;;;4.37;2.15;;;;;;;30.65;38.90;99975.77;1851507;77;21891;-81
2021/07/13 13:58:14;;;;;;;3.37;2.00;;;;;;;30.62;40.13;99971.58;1849652;77;21184;-81
2021/07/13 14:01:22;;;;;;;6.62;2.35;;;;;;;30.61;41.07;99977.55;1852867;75;21220;-80
2021/07/13 14:04:27;;;;;;;2.62;1.80;;;;;;;30.55;38.98;99979.66;1893889;75;21329;-81
2021/07/13 14:07:33;;;;;;;9.18;2.33;;;;;;;30.49;39.03;99982.35;1865600;76;21196;-80
2021/07/13 14:10:39;;;;;;;17.30;2.90;;;;;;;30.44;40.41;99973.98;1840394;78;21277;-81
2021/07/13 14:13:45;;;;;;;11.97;3.17;;;;;;;30.40;39.36;99977.20;1842038;76;21286;-80
2021/07/13 14:16:50;;;;;;;6.33;2.05;;;;;;;30.36;40.78;99976.99;1867107;76;21271;-80
2021/07/13 14:19:56;;;;;;;5.95;2.42;;;;;;;30.33;42.03;99974.79;1858998;76;21267;-80
2021/07/13 14:23:01;;;;;;;5.62;2.55;;;;;;;30.31;42.20;99976.27;1853753;76;21207;-80
2021/07/13 14:26:06;;;;;;;6.97;2.20;;;;;;;30.27;41.09;99981.13;1865637;76;21212;-80
2021/07/13 14:29:12;;;;;;;9.65;2.30;;;;;;;30.22;41.19;99977.01;1849379;76;21215;-80
2021/07/13 14:32:17;;;;;;;6.03;2.37;;;;;;;30.16;41.62;99974.05;1882319;76;21275;-80
2021/07/13 14:35:22;;;;;;;9.93;2.15;;;;;;;30.13;41.91;99976.63;1878837;76;21345;-80